createdAt,value
2022-07-31T00:02:20.718Z,98824.41
2022-07-31T00:07:43.290Z,98823.34
2022-07-31T00:13:05.060Z,98827.28
2022-07-31T00:18:26.859Z,98815.28
2022-07-31T00:23:48.616Z,98828.09
2022-07-31T00:29:10.914Z,98835.28
2022-07-31T00:34:37.732Z,98831.50
2022-07-31T00:39:59.479Z,98824.97
2022-07-31T00:45:22.221Z,98818.09
2022-07-31T00:50:51.083Z,98826.63
2022-07-31T00:56:12.884Z,98834.47
2022-07-31T01:01:34.730Z,98824.16
2022-07-31T01:06:56.518Z,98830.00
2022-07-31T01:12:25.918Z,98828.66
2022-07-31T01:17:50.878Z,98838.44
2022-07-31T01:23:50.108Z,98839.47
2022-07-31T01:29:28.556Z,98832.56
2022-07-31T01:34:54.646Z,98837.09
2022-07-31T01:40:28.621Z,98833.69
2022-07-31T01:45:55.440Z,98826.59
2022-07-31T01:51:18.585Z,98826.88
2022-07-31T01:56:41.007Z,98830.09
2022-07-31T02:02:04.646Z,98840.03
2022-07-31T02:07:28.034Z,98829.97
2022-07-31T02:12:50.903Z,98834.72
2022-07-31T02:18:13.118Z,98831.78
2022-07-31T02:23:34.922Z,98831.34
2022-07-31T02:28:57.173Z,98824.94
2022-07-31T02:34:19.405Z,98820.34
2022-07-31T02:39:43.734Z,98828.31
2022-07-31T02:45:07.619Z,98815.47
2022-07-31T02:50:30.153Z,98820.91
2022-07-31T02:55:52.782Z,98814.63
2022-07-31T03:01:15.150Z,98814.22
2022-07-31T03:06:37.023Z,98817.13
2022-07-31T03:12:01.868Z,98817.13
2022-07-31T03:17:38.163Z,98816.28
2022-07-31T03:23:03.403Z,98823.97
2022-07-31T03:28:25.147Z,98822.97
2022-07-31T03:33:46.991Z,98816.72
2022-07-31T03:39:08.764Z,98822.72
2022-07-31T03:44:32.663Z,98814.19
2022-07-31T03:49:54.443Z,98819.06
2022-07-31T03:55:16.667Z,98821.84
2022-07-31T04:00:38.641Z,98828.63
2022-07-31T04:06:00.355Z,98826.91
2022-07-31T04:11:22.112Z,98831.81
2022-07-31T04:16:43.830Z,98837.78
2022-07-31T04:22:05.897Z,98830.84
2022-07-31T04:27:27.891Z,98831.25
2022-07-31T04:32:49.685Z,98829.22
2022-07-31T04:38:12.203Z,98831.16
2022-07-31T04:43:33.973Z,98833.50
2022-07-31T04:48:55.910Z,98841.22
2022-07-31T04:54:17.697Z,98841.28
2022-07-31T04:59:59.632Z,98845.34
2022-07-31T05:05:21.359Z,98842.97
2022-07-31T05:11:01.732Z,98846.69
2022-07-31T05:16:24.158Z,98842.22
2022-07-31T05:21:53.368Z,98844.88
2022-07-31T05:27:16.393Z,98834.41
2022-07-31T05:32:38.108Z,98824.94
2022-07-31T05:37:59.835Z,98831.91
2022-07-31T05:43:21.663Z,98836.97
2022-07-31T05:48:44.829Z,98834.28
2022-07-31T05:54:06.575Z,98833.84
2022-07-31T05:59:28.372Z,98840.03
2022-07-31T06:04:50.266Z,98836.25
2022-07-31T06:10:12.050Z,98832.56
2022-07-31T06:15:36.603Z,98838.31
2022-07-31T06:20:58.653Z,98843.31
2022-07-31T06:26:20.471Z,98848.03
2022-07-31T06:31:44.834Z,98845.91
2022-07-31T06:37:06.629Z,98855.81
2022-07-31T06:42:28.716Z,98861.66
2022-07-31T06:47:50.469Z,98858.59
2022-07-31T06:53:12.207Z,98858.88
2022-07-31T06:58:33.909Z,98853.81
2022-07-31T07:03:56.229Z,98858.09
2022-07-31T07:09:17.970Z,98853.19
2022-07-31T07:14:39.804Z,98846.19
2022-07-31T07:20:01.545Z,98846.31
2022-07-31T07:25:23.267Z,98837.75
2022-07-31T07:30:45.189Z,98830.16
2022-07-31T07:36:07.113Z,98841.41
2022-07-31T07:41:28.941Z,98838.41
2022-07-31T07:46:50.843Z,98836.03
2022-07-31T07:52:12.850Z,98839.78
2022-07-31T07:57:36.214Z,98838.84
2022-07-31T08:03:46.987Z,98829.72
2022-07-31T08:08:39.740Z,98829.91
2022-07-31T08:14:01.469Z,98835.22
2022-07-31T08:19:23.200Z,98835.44
2022-07-31T08:24:45.196Z,98828.38
2022-07-31T08:30:07.648Z,98829.09
2022-07-31T08:35:29.478Z,98828.34
2022-07-31T08:40:51.873Z,98821.72
2022-07-31T08:46:13.789Z,98824.75
2022-07-31T08:52:00.869Z,98816.97
2022-07-31T08:57:20.522Z,98814.19
2022-07-31T09:02:42.352Z,98810.41
2022-07-31T09:08:06.555Z,98811.34
2022-07-31T09:13:34.830Z,98808.22
2022-07-31T09:19:01.559Z,98801.78
2022-07-31T09:24:29.282Z,98794.66
2022-07-31T09:29:52.767Z,98785.53
2022-07-31T09:35:15.450Z,98786.91
2022-07-31T09:40:51.547Z,98774.56
2022-07-31T09:46:19.495Z,98779.25
2022-07-31T09:51:43.906Z,98767.22
2022-07-31T09:57:13.284Z,98751.69
2022-07-31T10:02:38.927Z,98747.34
2022-07-31T10:08:01.801Z,98742.31
2022-07-31T10:13:24.669Z,98739.28
2022-07-31T10:18:51.360Z,98724.53
2022-07-31T10:24:13.423Z,98720.38
2022-07-31T10:29:36.770Z,98716.88
2022-07-31T10:34:58.882Z,98725.72
2022-07-31T10:40:29.319Z,98718.06
2022-07-31T10:45:53.389Z,98703.66
2022-07-31T10:51:15.181Z,98704.25
2022-07-31T10:56:46.171Z,98694.94
2022-07-31T11:02:07.973Z,98703.66
2022-07-31T11:07:29.797Z,98699.88
2022-07-31T11:13:05.706Z,98685.97
2022-07-31T11:18:31.164Z,98694.44
2022-07-31T11:24:03.001Z,98680.25
2022-07-31T11:29:59.153Z,98665.28
2022-07-31T11:35:31.155Z,98665.16
2022-07-31T11:40:53.092Z,98660.94
2022-07-31T11:46:28.100Z,98660.16
2022-07-31T11:51:49.900Z,98652.97
2022-07-31T11:57:11.729Z,98643.03
2022-07-31T12:02:33.712Z,98638.91
2022-07-31T12:07:56.032Z,98638.44
2022-07-31T12:13:20.418Z,98628.66
2022-07-31T12:18:59.374Z,98612.94
2022-07-31T12:24:21.669Z,98610.00
2022-07-31T12:29:43.844Z,98613.69
2022-07-31T12:35:06.284Z,98612.69
2022-07-31T12:40:28.657Z,98610.09
2022-07-31T12:45:54.165Z,98595.75
2022-07-31T12:51:46.286Z,98597.53
2022-07-31T12:57:03.727Z,98588.66
2022-07-31T13:02:25.705Z,98575.97
2022-07-31T13:07:48.311Z,98573.56
2022-07-31T13:13:10.266Z,98556.84
2022-07-31T13:18:32.782Z,98548.97
2022-07-31T13:23:56.255Z,98548.16
2022-07-31T13:29:21.019Z,98535.47
2022-07-31T13:34:42.817Z,98523.88
2022-07-31T13:40:07.094Z,98517.75
2022-07-31T13:45:32.478Z,98503.16
2022-07-31T13:50:54.230Z,98492.88
2022-07-31T13:56:39.549Z,98499.25
2022-07-31T14:02:02.847Z,98494.78
2022-07-31T14:07:48.064Z,98492.22
2022-07-31T14:13:08.274Z,98484.72
2022-07-31T14:18:31.130Z,98485.84
2022-07-31T14:23:52.947Z,98478.31
2022-07-31T14:29:14.846Z,98472.50
2022-07-31T14:34:36.656Z,98463.25
2022-07-31T14:40:05.867Z,98449.00
2022-07-31T14:45:27.743Z,98454.72
2022-07-31T14:50:49.638Z,98454.50
2022-07-31T14:56:11.374Z,98450.44
2022-07-31T15:01:33.160Z,98442.28
2022-07-31T15:07:07.661Z,98441.84
2022-07-31T15:12:36.793Z,98438.69
2022-07-31T15:17:58.587Z,98441.13
2022-07-31T15:23:21.218Z,98436.59
2022-07-31T15:28:43.067Z,98442.38
2022-07-31T15:34:05.095Z,98433.97
2022-07-31T15:39:26.922Z,98427.94
2022-07-31T15:44:48.621Z,98427.06
2022-07-31T15:50:13.279Z,98427.47
2022-07-31T15:55:35.192Z,98417.81
2022-07-31T16:00:57.229Z,98418.78
2022-07-31T16:06:19.066Z,98407.78
2022-07-31T16:12:04.510Z,98409.84
2022-07-31T16:17:37.712Z,98406.59
2022-07-31T16:23:03.569Z,98395.25
2022-07-31T16:28:25.460Z,98397.50
2022-07-31T16:33:50.902Z,98389.81
2022-07-31T16:39:20.635Z,98392.03
2022-07-31T16:44:43.652Z,98388.53
2022-07-31T16:50:05.751Z,98388.75
2022-07-31T16:55:59.485Z,98391.69
2022-07-31T17:01:57.546Z,98386.78
2022-07-31T17:06:52.303Z,98393.13
2022-07-31T17:12:14.050Z,98398.66
2022-07-31T17:17:35.906Z,98388.53
2022-07-31T17:22:57.739Z,98398.03
2022-07-31T17:28:19.489Z,98390.75
2022-07-31T17:33:58.885Z,98393.16
2022-07-31T17:39:21.736Z,98395.41
2022-07-31T17:44:46.965Z,98403.91
2022-07-31T17:50:12.726Z,98401.03
2022-07-31T17:55:34.552Z,98405.56
2022-07-31T18:00:56.274Z,98415.84
2022-07-31T18:06:18.079Z,98421.53
2022-07-31T18:11:39.841Z,98422.75
2022-07-31T18:17:02.085Z,98421.94
2022-07-31T18:22:23.934Z,98425.84
2022-07-31T18:27:45.696Z,98420.88
2022-07-31T18:33:07.615Z,98426.63
2022-07-31T18:38:29.371Z,98426.84
2022-07-31T18:43:51.265Z,98425.56
2022-07-31T18:51:01.286Z,98425.94
2022-07-31T18:54:54.875Z,98429.22
2022-07-31T19:00:17.054Z,98434.13
2022-07-31T19:05:39.318Z,98445.59
2022-07-31T19:11:01.081Z,98443.91
2022-07-31T19:16:24.384Z,98451.22
2022-07-31T19:21:46.169Z,98460.19
2022-07-31T19:27:08.023Z,98462.63
2022-07-31T19:32:30.678Z,98473.53
2022-07-31T19:38:03.290Z,98468.09
2022-07-31T19:43:25.448Z,98474.41
2022-07-31T19:48:47.435Z,98481.16
2022-07-31T19:54:09.251Z,98481.28
2022-07-31T19:59:31.977Z,98486.38
2022-07-31T20:04:56.076Z,98495.41
2022-07-31T20:10:17.864Z,98502.09
2022-07-31T20:15:51.015Z,98504.31
2022-07-31T20:21:14.886Z,98507.91
2022-07-31T20:26:36.761Z,98510.09
2022-07-31T20:31:59.733Z,98518.88
2022-07-31T20:37:21.485Z,98521.47
2022-07-31T20:42:43.258Z,98522.00
2022-07-31T20:48:05.480Z,98524.69
2022-07-31T20:53:27.599Z,98525.03
2022-07-31T20:58:51.741Z,98524.75
2022-07-31T21:04:13.842Z,98531.59
2022-07-31T21:09:35.582Z,98531.50
2022-07-31T21:14:57.383Z,98536.56
2022-07-31T21:20:19.201Z,98531.75
2022-07-31T21:25:44.075Z,98541.19
2022-07-31T21:31:06.158Z,98535.63
2022-07-31T21:36:28.630Z,98539.28
2022-07-31T21:41:50.638Z,98548.38
2022-07-31T21:47:18.490Z,98548.97
2022-07-31T21:52:41.837Z,98555.09
2022-07-31T21:58:05.107Z,98554.50
2022-07-31T22:03:27.197Z,98561.75
2022-07-31T22:08:48.999Z,98567.44
2022-07-31T22:14:10.941Z,98566.97
2022-07-31T22:19:32.924Z,98570.00
2022-07-31T22:24:55.309Z,98571.69
2022-07-31T22:30:17.870Z,98579.59
2022-07-31T22:35:40.863Z,98585.09
2022-07-31T22:41:03.210Z,98575.47
2022-07-31T22:46:25.866Z,98575.34
2022-07-31T22:51:47.599Z,98586.88
2022-07-31T22:57:09.498Z,98587.06
2022-07-31T23:02:31.348Z,98580.09
2022-07-31T23:07:53.195Z,98586.44
2022-07-31T23:13:14.925Z,98595.28
2022-07-31T23:18:36.689Z,98604.63
2022-07-31T23:23:58.381Z,98610.94
2022-07-31T23:29:20.148Z,98604.13
2022-07-31T23:34:41.864Z,98600.94
2022-07-31T23:40:04.391Z,98600.09
2022-07-31T23:45:26.114Z,98606.13
2022-07-31T23:50:49.450Z,98606.63
2022-07-31T23:56:14.308Z,98604.16
